TAF Text Data
IDs:
Format:
Raw Decoded Include METAR

Data at: 2233 UTC 25 Apr 2019

TAF for:KAUS (Austin/Bergstrom Int, TX, US) issued at 1733 UTC 25 Apr 2019
Text:KAUS 251733Z 2518/2624 33010KT P6SM SKC
Forecast period:1800 UTC 25 April 2019 to 0100 UTC 26 April 2019
Forecast type:FROM: standard forecast or significant change
Winds:from the NNW (330 degrees) at 12 MPH (10 knots; 5.1 m/s)
Visibility:6 or more sm (10+ km)
Ceiling:at least 12,000 feet AGL
Clouds:clear skies
Text:FM260100 36004KT P6SM SKC
Forecast period:0100 UTC 26 April 2019 to 0000 UTC 27 April 2019
Forecast type:FROM: standard forecast or significant change
Winds:from the N (360 degrees) at 5 MPH (4 knots; 2.1 m/s)
Visibility:6 or more sm (10+ km)
Ceiling:at least 12,000 feet AGL
Clouds:clear skies